createdAt,value
2023-03-23T15:58:27.398Z,16.05
2023-03-23T16:03:35.964Z,16.06
2023-03-23T16:08:40.977Z,15.95
2023-03-23T16:13:42.198Z,15.87
2023-03-23T16:18:43.006Z,15.87
2023-03-23T16:23:46.422Z,15.86
2023-03-23T16:28:47.264Z,15.70
2023-03-23T16:33:47.909Z,15.69
2023-03-23T16:38:52.469Z,15.65
2023-03-23T16:43:54.240Z,15.67
2023-03-23T16:48:54.850Z,15.50
2023-03-23T16:53:56.877Z,15.41
2023-03-23T16:58:57.580Z,15.23
2023-03-23T17:04:00.423Z,15.11
2023-03-23T17:09:02.538Z,14.97
2023-03-23T17:14:03.251Z,14.86
2023-03-23T17:19:04.079Z,14.86
2023-03-23T17:24:06.576Z,14.89
2023-03-23T17:29:07.302Z,14.76
2023-03-23T17:34:08.492Z,14.83
2023-03-23T17:39:10.682Z,14.68
2023-03-23T17:44:11.295Z,14.58
2023-03-23T17:49:12.065Z,14.50
2023-03-23T17:54:14.008Z,14.38
2023-03-23T17:59:14.625Z,14.18
2023-03-23T18:04:15.266Z,14.10
2023-03-23T18:09:17.291Z,13.97
2023-03-23T18:14:18.157Z,13.90
2023-03-23T18:19:18.787Z,13.74
2023-03-23T18:24:20.798Z,13.54
2023-03-23T18:29:21.395Z,13.37
2023-03-23T18:34:22.051Z,13.30
2023-03-23T18:39:24.044Z,13.23
2023-03-23T18:44:24.680Z,13.09
2023-03-23T18:49:25.485Z,12.99
2023-03-23T18:54:28.285Z,13.01
2023-03-23T18:59:30.458Z,12.89
2023-03-23T19:04:33.146Z,12.88
2023-03-23T19:09:35.788Z,12.83
2023-03-23T19:14:37.014Z,12.79
2023-03-23T19:19:38.542Z,12.68
2023-03-23T19:24:40.703Z,12.63
2023-03-23T19:29:41.680Z,12.51
2023-03-23T19:34:42.426Z,12.57
2023-03-23T19:39:44.507Z,12.43
2023-03-23T19:44:45.634Z,12.31
2023-03-23T19:49:46.587Z,12.22
2023-03-23T19:54:48.612Z,12.07
2023-03-23T19:59:49.250Z,12.16
2023-03-23T20:04:50.085Z,12.09
2023-03-23T20:09:52.122Z,12.09
2023-03-23T20:14:52.808Z,12.21
2023-03-23T20:19:53.432Z,12.26
2023-03-23T20:24:55.620Z,12.36
2023-03-23T20:29:56.992Z,12.47
2023-03-23T20:34:57.699Z,12.41
2023-03-23T20:40:01.333Z,12.50
2023-03-23T20:45:02.073Z,12.58
2023-03-23T20:50:03.496Z,12.65
2023-03-23T20:55:07.594Z,12.62
2023-03-23T21:00:10.052Z,12.61
2023-03-23T21:05:11.052Z,12.49
2023-03-23T21:10:13.258Z,12.41
2023-03-23T21:15:14.049Z,12.53
2023-03-23T21:20:14.945Z,12.64
2023-03-23T21:25:17.115Z,12.81
2023-03-23T21:30:18.030Z,12.98
2023-03-23T21:35:18.908Z,12.89
2023-03-23T21:40:22.001Z,12.94
2023-03-23T21:45:22.741Z,13.14
2023-03-23T21:50:24.263Z,13.17
2023-03-23T21:55:29.562Z,13.17
2023-03-23T22:00:30.298Z,13.16
2023-03-23T22:05:32.064Z,13.20
2023-03-23T22:10:34.112Z,13.18
2023-03-23T22:15:35.389Z,13.11
2023-03-23T22:20:36.022Z,13.00
2023-03-23T22:25:38.449Z,12.97
2023-03-23T22:30:39.153Z,12.91
2023-03-23T22:35:39.848Z,12.89
2023-03-23T22:40:42.560Z,12.86
2023-03-23T22:45:43.295Z,12.79
2023-03-23T22:50:44.279Z,12.75
2023-03-23T22:55:48.135Z,12.75
2023-03-23T23:00:50.968Z,12.78
2023-03-23T23:05:53.188Z,12.78
2023-03-23T23:10:57.638Z,12.80
2023-03-23T23:16:00.510Z,12.72
2023-03-23T23:21:05.076Z,12.70
2023-03-23T23:26:08.034Z,12.70
2023-03-23T23:31:22.474Z,12.73
2023-03-23T23:36:23.724Z,12.78
2023-03-23T23:41:26.424Z,12.81
2023-03-23T23:46:27.263Z,12.88
2023-03-23T23:51:28.734Z,12.86
2023-03-23T23:56:31.134Z,12.83
